KHUL/HUL METAR and TAF weather

Enter ICAO airport designator
Station Type Date Time Source
KHUL METAR 2020/07/03 12:53 UTC NOAA

KHUL 031253Z AUTO 00000KT 10SM OVC010 16/12 A2995 RMK AO2 SLP143 T01560122


Station Type Date Time Source
KHUL Decoded METAR 2020/07/03 12:53 UTC NOAA

HOULTON INT'L AIRPORT, ME, United States (KHUL) 46-07N 067-48W 150M
Jul 03, 2020 - 08:53 AM EDT / 2020.07.03 1253 UTC
Wind: Calm:0
Visibility: 10 mile(s):0
Sky conditions: overcast
Temperature: 60.1 F (15.6 C)
Dew Point: 54.0 F (12.2 C)
Relative Humidity: 80%
Pressure (altimeter): 29.95 in. Hg (1014 hPa)
ob: KHUL 031253Z AUTO 00000KT 10SM OVC010 16/12 A2995 RMK AO2 SLP143 T01560122
cycle: 13

Station Type Date Time Source
KHUL TAF 2020/07/03 12:22 UTC NOAA

TAF KHUL 031120Z 0312/0412 07004KT P6SM OVC013
FM031600 05003KT P6SM BKN035
FM032200 11003KT P6SM SCT070

Example: see airport list